createdAt,value
2023-05-01T00:01:44.044Z,60.80
2023-05-01T00:06:45.966Z,60.80
2023-05-01T00:11:47.657Z,60.70
2023-05-01T00:16:49.519Z,60.70
2023-05-01T00:21:52.982Z,60.60
2023-05-01T00:26:54.558Z,60.60
2023-05-01T00:31:56.223Z,60.50
2023-05-01T00:36:58.839Z,60.50
2023-05-01T00:42:00.760Z,60.50
2023-05-01T00:47:04.462Z,60.40
2023-05-01T00:52:06.250Z,60.40
2023-05-01T00:57:09.517Z,60.30
2023-05-01T01:02:12.730Z,60.30
2023-05-01T01:07:21.809Z,60.30
2023-05-01T01:12:23.424Z,60.20
2023-05-01T01:17:35.058Z,60.10
2023-05-01T01:22:37.192Z,60.10
2023-05-01T01:27:44.963Z,61.00
2023-05-01T01:32:46.550Z,60.00
2023-05-01T01:38:05.546Z,60.00
2023-05-01T01:43:07.811Z,59.90
2023-05-01T01:48:21.489Z,60.00
2023-05-01T01:53:23.929Z,59.90
2023-05-01T01:58:26.785Z,59.80
2023-05-01T02:03:29.685Z,59.90
2023-05-01T02:08:31.875Z,59.80
2023-05-01T02:13:33.911Z,59.80
2023-05-01T02:18:36.362Z,59.80
2023-05-01T02:23:38.589Z,59.60
2023-05-01T02:28:41.460Z,59.70
2023-05-01T02:33:43.064Z,59.70
2023-05-01T02:38:47.170Z,59.70
2023-05-01T02:43:53.227Z,59.70
2023-05-01T02:48:55.618Z,59.60
2023-05-01T02:53:58.127Z,59.60
2023-05-01T02:58:59.801Z,59.60
2023-05-01T03:04:01.689Z,59.70
2023-05-01T03:09:03.557Z,59.50
2023-05-01T03:14:05.599Z,59.50
2023-05-01T03:19:07.401Z,59.40
2023-05-01T03:24:09.715Z,59.50
2023-05-01T03:29:13.383Z,59.40
2023-05-01T03:34:14.977Z,59.40
2023-05-01T03:39:16.523Z,59.30
2023-05-01T03:44:18.717Z,59.20
2023-05-01T05:08:09.345Z,58.70
2023-05-01T05:13:10.920Z,58.60
2023-05-01T05:18:12.655Z,58.60
2023-05-01T05:23:14.403Z,58.60
2023-05-01T05:28:16.270Z,58.70
2023-05-01T05:33:18.142Z,58.60
2023-05-01T05:38:20.434Z,58.60
2023-05-01T05:43:22.298Z,58.60
2023-05-01T05:48:24.288Z,58.60
2023-05-01T05:53:26.392Z,58.60
2023-05-01T05:58:28.403Z,58.60
2023-05-01T06:03:30.113Z,59.60
2023-05-01T06:08:32.393Z,60.40
2023-05-01T06:13:34.485Z,60.60
2023-05-01T06:18:36.615Z,60.80
2023-05-01T06:23:38.610Z,61.00
2023-05-01T06:28:40.432Z,61.00
2023-05-01T06:33:42.125Z,61.10
2023-05-01T06:38:48.588Z,61.20
2023-05-01T06:43:50.310Z,61.30
2023-05-01T06:48:52.560Z,61.00
2023-05-01T06:53:54.216Z,61.30
2023-05-01T06:58:56.004Z,61.20
2023-05-01T07:03:57.607Z,61.10
2023-05-01T07:08:59.335Z,61.10
2023-05-01T07:14:01.385Z,60.90
2023-05-01T07:19:03.092Z,60.30
2023-05-01T07:24:04.844Z,56.40
2023-05-01T07:29:06.547Z,55.40
2023-05-01T07:34:08.095Z,54.20
2023-05-01T07:39:09.785Z,54.50
2023-05-01T07:44:11.599Z,54.50
2023-05-01T07:49:13.332Z,54.60
2023-05-01T07:54:16.408Z,54.80
2023-05-01T07:59:18.234Z,55.00
2023-05-01T08:04:22.854Z,54.70
2023-05-01T08:09:24.810Z,54.50
2023-05-01T08:14:26.808Z,54.40
2023-05-01T08:19:28.676Z,53.60
2023-05-01T08:24:30.776Z,54.10
2023-05-01T08:29:32.417Z,54.60
2023-05-01T08:34:34.187Z,55.30
2023-05-01T08:39:36.048Z,55.70
2023-05-01T08:44:38.592Z,56.30
2023-05-01T08:49:41.219Z,56.80
2023-05-01T08:54:44.244Z,57.10
2023-05-01T08:59:46.473Z,57.30
2023-05-01T09:04:49.548Z,57.30
2023-05-01T09:09:51.280Z,57.30
2023-05-01T09:14:54.456Z,57.30
2023-05-01T09:19:56.244Z,57.40
2023-05-01T09:24:59.063Z,57.60
2023-05-01T09:30:00.792Z,57.80
2023-05-01T09:35:10.088Z,57.80
2023-05-01T09:40:12.750Z,57.90
2023-05-01T09:45:14.871Z,58.00
2023-05-01T09:50:33.003Z,58.20
2023-05-01T09:55:34.955Z,58.80
2023-05-01T10:00:51.913Z,59.10
2023-05-01T10:05:56.917Z,59.30
2023-05-01T10:11:05.233Z,59.20
2023-05-01T10:16:10.612Z,59.30
2023-05-01T10:21:16.795Z,59.40
2023-05-01T10:26:19.203Z,59.40
2023-05-01T10:31:20.910Z,59.50
2023-05-01T10:36:26.837Z,59.70
2023-05-01T10:41:48.136Z,59.70
2023-05-01T10:46:49.968Z,59.70
2023-05-01T10:52:04.173Z,60.20
2023-05-01T10:57:06.563Z,62.60
2023-05-01T11:02:21.468Z,61.30
2023-05-01T11:07:23.839Z,61.00
2023-05-01T11:12:44.413Z,61.00
2023-05-01T11:17:49.770Z,60.90
2023-05-01T11:22:52.540Z,61.10
2023-05-01T11:27:54.826Z,61.10
2023-05-01T11:32:56.740Z,61.20
2023-05-01T11:37:58.622Z,62.30
2023-05-01T11:43:04.310Z,61.30
2023-05-01T11:48:14.136Z,61.30
2023-05-01T11:53:16.118Z,61.70
2023-05-01T11:58:17.944Z,61.80
2023-05-01T12:03:20.991Z,61.50
2023-05-01T12:08:23.825Z,61.60
2023-05-01T12:13:26.865Z,61.60
2023-05-01T12:18:28.866Z,61.60
2023-05-01T12:23:32.119Z,61.70
2023-05-01T12:28:33.749Z,61.50
2023-05-01T12:33:35.343Z,61.60
2023-05-01T12:38:37.038Z,61.60
2023-05-01T12:43:38.738Z,61.70
2023-05-01T12:48:41.284Z,59.80
2023-05-01T12:53:43.948Z,56.80
2023-05-01T12:58:45.516Z,55.20
2023-05-01T13:03:47.267Z,54.10
2023-05-01T13:08:49.553Z,53.50
2023-05-01T13:13:51.220Z,52.60
2023-05-01T13:18:53.757Z,52.30
2023-05-01T13:23:56.729Z,51.90
2023-05-01T13:28:59.897Z,51.70
2023-05-01T13:34:03.947Z,51.90
2023-05-01T13:39:05.724Z,52.10
2023-05-01T13:44:07.435Z,52.40
2023-05-01T13:49:09.214Z,52.60
2023-05-01T13:54:11.303Z,53.20
2023-05-01T13:59:13.058Z,53.20
2023-05-01T14:04:18.616Z,53.40
2023-05-01T14:09:20.405Z,53.70
2023-05-01T14:14:22.081Z,54.40
2023-05-01T14:19:24.170Z,55.70
2023-05-01T14:24:27.502Z,56.00
2023-05-01T14:29:29.928Z,59.40
2023-05-01T14:34:32.033Z,57.40
2023-05-01T14:39:33.687Z,57.30
2023-05-01T14:44:39.071Z,57.50
2023-05-01T14:49:41.144Z,58.50
2023-05-01T14:54:46.234Z,60.10
2023-05-01T14:59:47.870Z,59.80
2023-05-01T15:04:49.439Z,60.20
2023-05-01T15:09:51.827Z,60.20
2023-05-01T15:14:53.785Z,61.10
2023-05-01T15:19:55.691Z,61.30
2023-05-01T15:24:57.786Z,61.80
2023-05-01T15:29:59.851Z,61.70
2023-05-01T15:35:01.607Z,61.50
2023-05-01T15:40:04.338Z,61.60
2023-05-01T15:45:06.484Z,62.10
2023-05-01T15:50:09.572Z,61.20
2023-05-01T15:55:11.581Z,61.20
2023-05-01T16:00:14.492Z,61.30
2023-05-01T16:05:18.571Z,61.50
2023-05-01T16:10:20.536Z,61.30
2023-05-01T16:15:22.831Z,61.90
2023-05-01T16:20:24.610Z,62.40
2023-05-01T16:25:26.413Z,61.00
2023-05-01T16:30:28.368Z,60.80
2023-05-01T16:35:30.027Z,62.90
2023-05-01T16:40:31.810Z,61.90
2023-05-01T16:45:33.512Z,61.10
2023-05-01T16:50:38.350Z,61.70
2023-05-01T16:55:40.049Z,62.60
2023-05-01T17:00:42.767Z,62.80
2023-05-01T17:05:44.516Z,63.00
2023-05-01T17:10:46.338Z,63.40
2023-05-01T17:15:48.453Z,63.70
2023-05-01T17:20:50.298Z,63.80
2023-05-01T17:25:52.033Z,64.10
2023-05-01T17:30:53.754Z,64.30
2023-05-01T17:35:57.360Z,64.30
2023-05-01T17:40:59.069Z,64.40
2023-05-01T17:46:00.980Z,64.40
2023-05-01T17:51:03.145Z,64.60
2023-05-01T17:56:04.995Z,64.60
2023-05-01T18:01:06.869Z,64.70
2023-05-01T18:06:08.553Z,64.90
2023-05-01T18:11:10.433Z,64.90
2023-05-01T18:16:12.275Z,64.90
2023-05-01T18:21:14.795Z,64.90
2023-05-01T18:26:16.689Z,65.00
2023-05-01T18:31:18.438Z,65.00
2023-05-01T18:36:20.154Z,64.50
2023-05-01T18:41:22.833Z,64.40
2023-05-01T18:46:24.565Z,64.30
2023-05-01T18:51:26.639Z,64.40
2023-05-01T18:56:28.495Z,64.10
2023-05-01T19:01:30.342Z,64.10
2023-05-01T19:06:32.491Z,64.10
2023-05-01T19:11:34.387Z,63.80
2023-05-01T19:16:36.117Z,63.80
2023-05-01T19:21:37.862Z,63.80
2023-05-01T19:26:39.552Z,63.80
2023-05-01T19:31:41.601Z,63.90
2023-05-01T19:36:43.381Z,63.90
2023-05-01T19:41:44.957Z,64.00
2023-05-01T19:46:46.638Z,64.10
2023-05-01T19:51:48.325Z,64.10
2023-05-01T19:56:51.755Z,64.10
2023-05-01T20:01:53.919Z,64.20
2023-05-01T20:06:55.920Z,64.30
2023-05-01T20:11:57.773Z,64.30
2023-05-01T20:16:59.793Z,64.30
2023-05-01T20:22:01.656Z,64.00
2023-05-01T20:27:03.554Z,64.80
2023-05-01T20:32:05.591Z,64.20
2023-05-01T20:37:07.301Z,64.20
2023-05-01T20:42:08.956Z,64.10
2023-05-01T20:47:10.666Z,64.30
2023-05-01T20:52:12.413Z,64.20
2023-05-01T20:57:16.094Z,64.30
2023-05-01T21:02:17.918Z,64.30
2023-05-01T21:07:19.702Z,64.30
2023-05-01T21:12:21.493Z,64.30
2023-05-01T21:17:23.360Z,64.30
2023-05-01T21:22:25.580Z,64.40
2023-05-01T21:27:27.506Z,64.40
2023-05-01T21:32:32.498Z,64.40
2023-05-01T21:37:34.389Z,64.30
2023-05-01T21:42:37.933Z,64.40
2023-05-01T21:47:51.090Z,64.40
2023-05-01T21:52:53.014Z,64.30
2023-05-01T21:57:54.962Z,64.40
2023-05-01T22:02:56.947Z,64.50
2023-05-01T22:07:58.732Z,64.40
2023-05-01T22:13:00.484Z,64.30
2023-05-01T22:18:02.347Z,64.30
2023-05-01T22:23:04.210Z,64.20
2023-05-01T22:28:06.027Z,64.20
2023-05-01T22:33:07.613Z,64.10
2023-05-01T22:38:09.458Z,64.10
2023-05-01T22:43:11.208Z,64.10
2023-05-01T22:48:13.215Z,64.00
2023-05-01T22:53:15.221Z,63.90
2023-05-01T22:58:17.006Z,63.70
2023-05-01T23:03:18.903Z,63.70
2023-05-01T23:08:20.653Z,63.50
2023-05-01T23:13:23.770Z,63.60
2023-05-01T23:18:30.137Z,63.40
2023-05-01T23:23:34.751Z,63.50
2023-05-01T23:28:40.630Z,63.40
2023-05-01T23:33:42.462Z,63.30
2023-05-01T23:38:44.179Z,63.30
2023-05-01T23:43:48.035Z,63.30
2023-05-01T23:48:49.821Z,63.20
2023-05-01T23:53:51.670Z,63.20
2023-05-01T23:58:53.735Z,63.10
